sensor_id;sensor_type;location;lat;lon;timestamp;pressure;altitude;pressure_sealevel;temperature;humidity
46724;BME280;32463;48.298;11.620;2023-05-03T00:01:08;97013.53;;;4.96;100.00
46724;BME280;32463;48.298;11.620;2023-05-03T00:03:35;97001.81;;;4.92;100.00
46724;BME280;32463;48.298;11.620;2023-05-03T00:06:14;97003.56;;;4.91;100.00
46724;BME280;32463;48.298;11.620;2023-05-03T00:08:41;97003.00;;;4.75;100.00
46724;BME280;32463;48.298;11.620;2023-05-03T00:11:08;97012.88;;;4.68;100.00
46724;BME280;32463;48.298;11.620;2023-05-03T00:13:35;97011.03;;;4.70;100.00
46724;BME280;32463;48.298;11.620;2023-05-03T00:16:02;97015.03;;;4.74;100.00
46724;BME280;32463;48.298;11.620;2023-05-03T00:18:29;97010.72;;;4.75;100.00
46724;BME280;32463;48.298;11.620;2023-05-03T00:20:58;97007.13;;;4.78;100.00
46724;BME280;32463;48.298;11.620;2023-05-03T00:23:25;97007.94;;;4.78;100.00
46724;BME280;32463;48.298;11.620;2023-05-03T00:25:54;97011.44;;;4.77;100.00
46724;BME280;32463;48.298;11.620;2023-05-03T00:28:22;97009.19;;;4.72;100.00
46724;BME280;32463;48.298;11.620;2023-05-03T00:30:48;97002.19;;;4.74;100.00
46724;BME280;32463;48.298;11.620;2023-05-03T00:33:15;97008.56;;;4.69;100.00
46724;BME280;32463;48.298;11.620;2023-05-03T00:35:43;97012.88;;;4.68;100.00
46724;BME280;32463;48.298;11.620;2023-05-03T00:38:10;97009.91;;;4.74;100.00
46724;BME280;32463;48.298;11.620;2023-05-03T00:40:38;97006.41;;;4.76;100.00
46724;BME280;32463;48.298;11.620;2023-05-03T00:43:05;97006.50;;;4.74;100.00
46724;BME280;32463;48.298;11.620;2023-05-03T00:45:32;97003.63;;;4.79;100.00
46724;BME280;32463;48.298;11.620;2023-05-03T00:48:00;97005.88;;;4.83;100.00
46724;BME280;32463;48.298;11.620;2023-05-03T00:50:27;96999.91;;;4.83;100.00
46724;BME280;32463;48.298;11.620;2023-05-03T00:52:54;96997.44;;;4.81;100.00
46724;BME280;32463;48.298;11.620;2023-05-03T00:55:21;97005.38;;;4.78;100.00
46724;BME280;32463;48.298;11.620;2023-05-03T00:57:47;96998.47;;;4.79;100.00
46724;BME280;32463;48.298;11.620;2023-05-03T01:00:15;96997.56;;;4.80;100.00
46724;BME280;32463;48.298;11.620;2023-05-03T01:02:42;96995.59;;;4.83;100.00
46724;BME280;32463;48.298;11.620;2023-05-03T01:05:08;96994.56;;;4.86;100.00
46724;BME280;32463;48.298;11.620;2023-05-03T01:07:55;96988.50;;;4.87;100.00
46724;BME280;32463;48.298;11.620;2023-05-03T01:10:37;96997.41;;;4.94;100.00
46724;BME280;32463;48.298;11.620;2023-05-03T01:13:27;96991.00;;;4.99;100.00
46724;BME280;32463;48.298;11.620;2023-05-03T01:16:43;96988.13;;;5.04;100.00
46724;BME280;32463;48.298;11.620;2023-05-03T01:18:45;96994.91;;;5.05;100.00
46724;BME280;32463;48.298;11.620;2023-05-03T01:21:16;96993.75;;;5.09;100.00
46724;BME280;32463;48.298;11.620;2023-05-03T01:24:02;96995.31;;;5.12;100.00
46724;BME280;32463;48.298;11.620;2023-05-03T01:26:29;96993.47;;;5.01;100.00
46724;BME280;32463;48.298;11.620;2023-05-03T01:28:57;96995.13;;;5.02;100.00
46724;BME280;32463;48.298;11.620;2023-05-03T01:31:35;96995.13;;;5.02;100.00
46724;BME280;32463;48.298;11.620;2023-05-03T01:34:21;96995.13;;;5.02;100.00
46724;BME280;32463;48.298;11.620;2023-05-03T01:36:52;96995.22;;;5.00;100.00
46724;BME280;32463;48.298;11.620;2023-05-03T01:39:26;96996.97;;;5.00;100.00
46724;BME280;32463;48.298;11.620;2023-05-03T01:41:55;96996.16;;;4.99;100.00
46724;BME280;32463;48.298;11.620;2023-05-03T01:44:22;96992.03;;;4.97;100.00
46724;BME280;32463;48.298;11.620;2023-05-03T01:46:50;96999.88;;;4.95;100.00
46724;BME280;32463;48.298;11.620;2023-05-03T01:49:17;96999.81;;;4.71;100.00
46724;BME280;32463;48.298;11.620;2023-05-03T01:51:43;97000.56;;;4.61;100.00
46724;BME280;32463;48.298;11.620;2023-05-03T01:54:09;96995.66;;;4.58;100.00
46724;BME280;32463;48.298;11.620;2023-05-03T01:56:36;97003.22;;;4.59;100.00
46724;BME280;32463;48.298;11.620;2023-05-03T01:59:03;97006.50;;;4.61;100.00
46724;BME280;32463;48.298;11.620;2023-05-03T02:01:30;96999.53;;;4.63;100.00
46724;BME280;32463;48.298;11.620;2023-05-03T02:03:56;97000.53;;;4.73;100.00
46724;BME280;32463;48.298;11.620;2023-05-03T02:06:24;97003.41;;;4.82;100.00
46724;BME280;32463;48.298;11.620;2023-05-03T02:08:51;96997.25;;;4.84;100.00
46724;BME280;32463;48.298;11.620;2023-05-03T02:11:18;96999.50;;;4.89;100.00
46724;BME280;32463;48.298;11.620;2023-05-03T02:13:47;97004.63;;;4.89;100.00
46724;BME280;32463;48.298;11.620;2023-05-03T02:16:15;97005.78;;;4.85;100.00
46724;BME280;32463;48.298;11.620;2023-05-03T02:18:42;96997.56;;;4.80;100.00
46724;BME280;32463;48.298;11.620;2023-05-03T02:21:09;96999.41;;;4.78;100.00
46724;BME280;32463;48.298;11.620;2023-05-03T02:23:35;97005.88;;;4.83;100.00
46724;BME280;32463;48.298;11.620;2023-05-03T02:26:02;96996.84;;;4.78;100.00
46724;BME280;32463;48.298;11.620;2023-05-03T02:28:28;97010.91;;;4.85;100.00
46724;BME280;32463;48.298;11.620;2023-05-03T02:30:54;97010.81;;;4.86;100.00
46724;BME280;32463;48.298;11.620;2023-05-03T02:33:21;97003.81;;;4.88;100.00
46724;BME280;32463;48.298;11.620;2023-05-03T02:35:49;96998.22;;;4.94;100.00
46724;BME280;32463;48.298;11.620;2023-05-03T02:38:16;97005.59;;;4.99;100.00
46724;BME280;32463;48.298;11.620;2023-05-03T02:40:42;97005.81;;;4.96;100.00
46724;BME280;32463;48.298;11.620;2023-05-03T02:43:09;97009.78;;;4.89;100.00
46724;BME280;32463;48.298;11.620;2023-05-03T02:45:35;97004.03;;;4.72;100.00
46724;BME280;32463;48.298;11.620;2023-05-03T02:48:02;97001.16;;;4.64;100.00
46724;BME280;32463;48.298;11.620;2023-05-03T02:50:28;97004.47;;;4.66;100.00
46724;BME280;32463;48.298;11.620;2023-05-03T02:52:55;97000.47;;;4.62;100.00
46724;BME280;32463;48.298;11.620;2023-05-03T02:55:21;97005.59;;;4.62;100.00
46724;BME280;32463;48.298;11.620;2023-05-03T02:57:49;97003.47;;;4.56;100.00
46724;BME280;32463;48.298;11.620;2023-05-03T03:00:15;96997.09;;;4.49;100.00
46724;BME280;32463;48.298;11.620;2023-05-03T03:02:42;97007.47;;;4.48;100.00
46724;BME280;32463;48.298;11.620;2023-05-03T03:05:09;97004.09;;;4.47;100.00
46724;BME280;32463;48.298;11.620;2023-05-03T03:07:38;97009.00;;;4.50;100.00
46724;BME280;32463;48.298;11.620;2023-05-03T03:10:06;97009.63;;;4.41;100.00
46724;BME280;32463;48.298;11.620;2023-05-03T03:12:34;97012.59;;;4.35;100.00
46724;BME280;32463;48.298;11.620;2023-05-03T03:15:01;97013.00;;;4.29;100.00
46724;BME280;32463;48.298;11.620;2023-05-03T03:17:29;97009.03;;;4.25;100.00
46724;BME280;32463;48.298;11.620;2023-05-03T03:19:56;97013.00;;;4.29;100.00
46724;BME280;32463;48.298;11.620;2023-05-03T03:22:23;97008.59;;;4.31;100.00
46724;BME280;32463;48.298;11.620;2023-05-03T03:24:51;97003.06;;;4.37;100.00
46724;BME280;32463;48.298;11.620;2023-05-03T03:27:17;96997.72;;;4.40;100.00
46724;BME280;32463;48.298;11.620;2023-05-03T03:29:45;96998.94;;;4.47;100.00
46724;BME280;32463;48.298;11.620;2023-05-03T03:32:12;96999.16;;;4.57;100.00
46724;BME280;32463;48.298;11.620;2023-05-03T03:34:38;97006.91;;;4.68;100.00
46724;BME280;32463;48.298;11.620;2023-05-03T03:37:04;96997.16;;;4.73;100.00
46724;BME280;32463;48.298;11.620;2023-05-03T03:39:31;97005.56;;;4.88;100.00
46724;BME280;32463;48.298;11.620;2023-05-03T03:41:58;97011.38;;;4.90;100.00
46724;BME280;32463;48.298;11.620;2023-05-03T03:44:25;97009.41;;;4.93;100.00
46724;BME280;32463;48.298;11.620;2023-05-03T03:46:51;97003.16;;;4.97;100.00
46724;BME280;32463;48.298;11.620;2023-05-03T03:49:18;97003.75;;;5.01;100.00
46724;BME280;32463;48.298;11.620;2023-05-03T03:51:44;97005.59;;;4.99;100.00
46724;BME280;32463;48.298;11.620;2023-05-03T03:54:10;97005.41;;;5.02;100.00
46724;BME280;32463;48.298;11.620;2023-05-03T03:56:37;97004.47;;;5.03;100.00
46724;BME280;32463;48.298;11.620;2023-05-03T03:59:04;97010.53;;;5.02;100.00
46724;BME280;32463;48.298;11.620;2023-05-03T04:01:32;97009.50;;;5.04;100.00
46724;BME280;32463;48.298;11.620;2023-05-03T04:03:58;97010.13;;;5.08;100.00
46724;BME280;32463;48.298;11.620;2023-05-03T04:06:25;97013.59;;;5.07;100.00
46724;BME280;32463;48.298;11.620;2023-05-03T04:08:52;97020.91;;;5.13;100.00
46724;BME280;32463;48.298;11.620;2023-05-03T04:11:19;97023.97;;;5.18;100.00
46724;BME280;32463;48.298;11.620;2023-05-03T04:13:46;97019.16;;;5.14;100.00
46724;BME280;32463;48.298;11.620;2023-05-03T04:16:13;97019.16;;;5.14;100.00
46724;BME280;32463;48.298;11.620;2023-05-03T04:18:39;97018.53;;;5.10;100.00
46724;BME280;32463;48.298;11.620;2023-05-03T04:21:06;97021.59;;;5.15;100.00
46724;BME280;32463;48.298;11.620;2023-05-03T04:23:33;97029.78;;;5.20;100.00
46724;BME280;32463;48.298;11.620;2023-05-03T04:25:59;97027.72;;;5.25;100.00
46724;BME280;32463;48.298;11.620;2023-05-03T04:28:26;97033.16;;;5.33;100.00
46724;BME280;32463;48.298;11.620;2023-05-03T04:30:53;97041.44;;;5.61;100.00
46724;BME280;32463;48.298;11.620;2023-05-03T04:33:19;97040.94;;;6.03;100.00
46724;BME280;32463;48.298;11.620;2023-05-03T04:35:50;97048.16;;;5.98;100.00
46724;BME280;32463;48.298;11.620;2023-05-03T04:38:16;97045.94;;;5.94;100.00
46724;BME280;32463;48.298;11.620;2023-05-03T04:40:44;97046.75;;;5.94;100.00
46724;BME280;32463;48.298;11.620;2023-05-03T04:43:11;97050.47;;;5.90;100.00
46724;BME280;32463;48.298;11.620;2023-05-03T04:45:38;97053.75;;;5.92;100.00
46724;BME280;32463;48.298;11.620;2023-05-03T04:48:04;97054.59;;;5.93;100.00
46724;BME280;32463;48.298;11.620;2023-05-03T04:50:32;97057.03;;;5.94;100.00
46724;BME280;32463;48.298;11.620;2023-05-03T04:52:58;97056.22;;;5.94;100.00
46724;BME280;32463;48.298;11.620;2023-05-03T04:55:25;97053.09;;;6.01;100.00
46724;BME280;32463;48.298;11.620;2023-05-03T04:57:51;97058.03;;;6.04;100.00
46724;BME280;32463;48.298;11.620;2023-05-03T05:00:18;97043.28;;;6.06;100.00
46724;BME280;32463;48.298;11.620;2023-05-03T05:02:45;97054.75;;;6.14;100.00
46724;BME280;32463;48.298;11.620;2023-05-03T05:05:11;97054.78;;;6.25;100.00
46724;BME280;32463;48.298;11.620;2023-05-03T05:07:38;97055.97;;;6.32;100.00
46724;BME280;32463;48.298;11.620;2023-05-03T05:10:05;97060.44;;;6.41;100.00
46724;BME280;32463;48.298;11.620;2023-05-03T05:12:32;97062.06;;;6.53;100.00
46724;BME280;32463;48.298;11.620;2023-05-03T05:14:58;97063.97;;;6.62;100.00
46724;BME280;32463;48.298;11.620;2023-05-03T05:17:24;97062.47;;;6.71;100.00
46724;BME280;32463;48.298;11.620;2023-05-03T05:19:51;97063.84;;;6.86;100.00
46724;BME280;32463;48.298;11.620;2023-05-03T05:22:18;97064.91;;;6.95;100.00
46724;BME280;32463;48.298;11.620;2023-05-03T05:24:45;97065.50;;;6.98;100.00
46724;BME280;32463;48.298;11.620;2023-05-03T05:27:11;97066.09;;;7.02;100.00
46724;BME280;32463;48.298;11.620;2023-05-03T05:29:39;97073.34;;;6.97;100.00
46724;BME280;32463;48.298;11.620;2023-05-03T05:32:05;97077.91;;;6.93;100.00
46724;BME280;32463;48.298;11.620;2023-05-03T05:34:33;97079.19;;;7.10;100.00
46724;BME280;32463;48.298;11.620;2023-05-03T05:37:00;97082.34;;;7.25;100.00
46724;BME280;32463;48.298;11.620;2023-05-03T05:39:27;97077.53;;;7.31;100.00
46724;BME280;32463;48.298;11.620;2023-05-03T05:41:54;97074.00;;;7.32;100.00
46724;BME280;32463;48.298;11.620;2023-05-03T05:44:21;97076.59;;;7.32;100.00
46724;BME280;32463;48.298;11.620;2023-05-03T05:46:47;97079.59;;;7.49;100.00
46724;BME280;32463;48.298;11.620;2023-05-03T05:49:14;97078.19;;;7.44;100.00
46724;BME280;32463;48.298;11.620;2023-05-03T05:51:40;97079.59;;;7.49;100.00
46724;BME280;32463;48.298;11.620;2023-05-03T05:54:06;97078.88;;;7.58;100.00
46724;BME280;32463;48.298;11.620;2023-05-03T05:56:33;97078.31;;;7.86;100.00
46724;BME280;32463;48.298;11.620;2023-05-03T05:58:59;97076.41;;;7.88;100.00
46724;BME280;32463;48.298;11.620;2023-05-03T06:01:29;97086.09;;;7.96;100.00
46724;BME280;32463;48.298;11.620;2023-05-03T06:03:56;97086.03;;;7.86;100.00
46724;BME280;32463;48.298;11.620;2023-05-03T06:06:22;97081.59;;;7.88;100.00
46724;BME280;32463;48.298;11.620;2023-05-03T06:08:49;97084.88;;;7.90;100.00
46724;BME280;32463;48.298;11.620;2023-05-03T06:11:16;97086.50;;;7.91;100.00
46724;BME280;32463;48.298;11.620;2023-05-03T06:13:42;97088.03;;;8.15;100.00
46724;BME280;32463;48.298;11.620;2023-05-03T06:16:10;97085.91;;;8.20;100.00
46724;BME280;32463;48.298;11.620;2023-05-03T06:18:36;97096.97;;;8.10;100.00
46724;BME280;32463;48.298;11.620;2023-05-03T06:21:03;97092.38;;;7.93;100.00
46724;BME280;32463;48.298;11.620;2023-05-03T06:23:30;97095.09;;;8.13;100.00
46724;BME280;32463;48.298;11.620;2023-05-03T06:25:57;97089.44;;;8.19;100.00
46724;BME280;32463;48.298;11.620;2023-05-03T06:28:24;97096.22;;;8.20;100.00
46724;BME280;32463;48.298;11.620;2023-05-03T06:30:51;97093.69;;;8.08;100.00
46724;BME280;32463;48.298;11.620;2023-05-03T06:33:18;97108.09;;;7.90;100.00
46724;BME280;32463;48.298;11.620;2023-05-03T06:35:44;97099.78;;;7.87;100.00
46724;BME280;32463;48.298;11.620;2023-05-03T06:38:12;97104.97;;;8.07;100.00
46724;BME280;32463;48.298;11.620;2023-05-03T06:40:38;97105.66;;;8.09;100.00
46724;BME280;32463;48.298;11.620;2023-05-03T06:43:06;97105.81;;;7.97;100.00
46724;BME280;32463;48.298;11.620;2023-05-03T06:45:33;97104.03;;;8.08;100.00
46724;BME280;32463;48.298;11.620;2023-05-03T06:47:59;97099.31;;;8.14;100.00
46724;BME280;32463;48.298;11.620;2023-05-03T06:50:26;97099.75;;;8.19;100.00
46724;BME280;32463;48.298;11.620;2023-05-03T06:52:53;97105.06;;;8.38;100.00
46724;BME280;32463;48.298;11.620;2023-05-03T06:55:19;97104.06;;;8.50;100.00
46724;BME280;32463;48.298;11.620;2023-05-03T06:57:46;97108.22;;;8.62;100.00
46724;BME280;32463;48.298;11.620;2023-05-03T07:00:13;97111.25;;;8.67;100.00
46724;BME280;32463;48.298;11.620;2023-05-03T07:02:40;97101.94;;;8.55;100.00
46724;BME280;32463;48.298;11.620;2023-05-03T07:05:07;97097.31;;;8.59;100.00
46724;BME280;32463;48.298;11.620;2023-05-03T07:07:33;97106.81;;;8.58;100.00
46724;BME280;32463;48.298;11.620;2023-05-03T07:10:00;97104.00;;;8.40;100.00
46724;BME280;32463;48.298;11.620;2023-05-03T07:12:26;97101.56;;;8.39;100.00
46724;BME280;32463;48.298;11.620;2023-05-03T07:14:56;97094.38;;;8.42;100.00
46724;BME280;32463;48.298;11.620;2023-05-03T07:17:24;97090.81;;;8.64;100.00
46724;BME280;32463;48.298;11.620;2023-05-03T07:19:51;97088.22;;;8.64;100.00
46724;BME280;32463;48.298;11.620;2023-05-03T07:22:18;97084.31;;;8.70;100.00
46724;BME280;32463;48.298;11.620;2023-05-03T07:24:45;97084.69;;;8.86;100.00
46724;BME280;32463;48.298;11.620;2023-05-03T07:27:12;97072.03;;;8.93;100.00
46724;BME280;32463;48.298;11.620;2023-05-03T07:29:39;97073.59;;;9.05;100.00
46724;BME280;32463;48.298;11.620;2023-05-03T07:32:05;97075.75;;;9.00;100.00
46724;BME280;32463;48.298;11.620;2023-05-03T07:34:32;97079.28;;;8.99;100.00
46724;BME280;32463;48.298;11.620;2023-05-03T07:36:58;97078.16;;;8.92;100.00
46724;BME280;32463;48.298;11.620;2023-05-03T07:39:25;97077.63;;;8.98;100.00
46724;BME280;32463;48.298;11.620;2023-05-03T07:41:51;97082.13;;;8.96;100.00
46724;BME280;32463;48.298;11.620;2023-05-03T07:44:17;97081.25;;;9.16;100.00
46724;BME280;32463;48.298;11.620;2023-05-03T07:46:44;97078.97;;;9.32;100.00
46724;BME280;32463;48.298;11.620;2023-05-03T07:49:10;97080.44;;;9.25;100.00
46724;BME280;32463;48.298;11.620;2023-05-03T07:51:37;97076.69;;;9.39;100.00
46724;BME280;32463;48.298;11.620;2023-05-03T07:54:05;97081.44;;;9.34;100.00
46724;BME280;32463;48.298;11.620;2023-05-03T07:56:32;97072.31;;;9.39;100.00
46724;BME280;32463;48.298;11.620;2023-05-03T07:58:58;97077.78;;;9.56;100.00
46724;BME280;32463;48.298;11.620;2023-05-03T08:01:25;97070.72;;;9.58;100.00
46724;BME280;32463;48.298;11.620;2023-05-03T08:03:52;97073.72;;;9.63;100.00
46724;BME280;32463;48.298;11.620;2023-05-03T08:06:18;97071.28;;;9.71;100.00
46724;BME280;32463;48.298;11.620;2023-05-03T08:08:45;97071.84;;;9.74;100.00
46724;BME280;32463;48.298;11.620;2023-05-03T08:11:11;97070.34;;;10.01;100.00
46724;BME280;32463;48.298;11.620;2023-05-03T08:13:38;97076.47;;;10.29;100.00
46724;BME280;32463;48.298;11.620;2023-05-03T08:16:05;97064.75;;;10.05;100.00
46724;BME280;32463;48.298;11.620;2023-05-03T08:18:33;97076.75;;;10.26;100.00
46724;BME280;32463;48.298;11.620;2023-05-03T08:20:59;97071.25;;;10.48;100.00
46724;BME280;32463;48.298;11.620;2023-05-03T08:23:25;97070.41;;;10.57;100.00
46724;BME280;32463;48.298;11.620;2023-05-03T08:25:52;97061.97;;;10.55;100.00
46724;BME280;32463;48.298;11.620;2023-05-03T08:28:19;97070.97;;;10.51;100.00
46724;BME280;32463;48.298;11.620;2023-05-03T08:30:45;97068.38;;;10.51;100.00
46724;BME280;32463;48.298;11.620;2023-05-03T08:33:12;97061.13;;;10.64;100.00
46724;BME280;32463;48.298;11.620;2023-05-03T08:35:38;97064.41;;;10.66;100.00
46724;BME280;32463;48.298;11.620;2023-05-03T08:38:05;97068.91;;;10.64;100.00
46724;BME280;32463;48.298;11.620;2023-05-03T08:40:31;97068.41;;;10.88;100.00
46724;BME280;32463;48.298;11.620;2023-05-03T08:43:06;97068.78;;;10.66;100.00
46724;BME280;32463;48.298;11.620;2023-05-03T08:45:34;97073.63;;;10.78;100.00
46724;BME280;32463;48.298;11.620;2023-05-03T08:48:01;97067.00;;;10.66;100.00
46724;BME280;32463;48.298;11.620;2023-05-03T08:50:29;97061.16;;;10.55;100.00
46724;BME280;32463;48.298;11.620;2023-05-03T08:52:55;97068.63;;;10.67;100.00
46724;BME280;32463;48.298;11.620;2023-05-03T08:55:22;97070.56;;;10.46;100.00
46724;BME280;32463;48.298;11.620;2023-05-03T08:57:48;97077.19;;;10.77;100.00
46724;BME280;32463;48.298;11.620;2023-05-03T09:00:16;97077.53;;;10.55;100.00
46724;BME280;32463;48.298;11.620;2023-05-03T09:02:43;97075.06;;;10.54;100.00
46724;BME280;32463;48.298;11.620;2023-05-03T09:07:39;97081.69;;;10.75;100.00
46724;BME280;32463;48.298;11.620;2023-05-03T09:10:22;97082.63;;;10.74;100.00
46724;BME280;32463;48.298;11.620;2023-05-03T09:12:56;97096.81;;;10.90;100.00
46724;BME280;32463;48.298;11.620;2023-05-03T09:15:24;97085.06;;;10.86;100.00
46724;BME280;32463;48.298;11.620;2023-05-03T09:18:09;97086.59;;;10.78;100.00
46724;BME280;32463;48.298;11.620;2023-05-03T09:20:37;97079.88;;;10.86;100.00
46724;BME280;32463;48.298;11.620;2023-05-03T09:23:05;97092.19;;;10.74;100.00
46724;BME280;32463;48.298;11.620;2023-05-03T09:25:46;97087.88;;;10.65;100.00
46724;BME280;32463;48.298;11.620;2023-05-03T09:28:13;97087.94;;;10.83;100.00
46724;BME280;32463;48.298;11.620;2023-05-03T09:30:42;97086.69;;;10.96;100.00
46724;BME280;32463;48.298;11.620;2023-05-03T09:33:08;97089.03;;;11.17;100.00
46724;BME280;32463;48.298;11.620;2023-05-03T09:35:49;97082.31;;;11.52;100.00
46724;BME280;32463;48.298;11.620;2023-05-03T09:38:28;97081.34;;;11.70;100.00
46724;BME280;32463;48.298;11.620;2023-05-03T09:40:55;97086.63;;;11.33;100.00
46724;BME280;32463;48.298;11.620;2023-05-03T09:43:22;97078.56;;;11.36;100.00
46724;BME280;32463;48.298;11.620;2023-05-03T09:45:48;97083.56;;;11.20;100.00
46724;BME280;32463;48.298;11.620;2023-05-03T09:48:15;97079.44;;;11.27;100.00
46724;BME280;32463;48.298;11.620;2023-05-03T09:50:43;97084.91;;;11.24;100.00
46724;BME280;32463;48.298;11.620;2023-05-03T09:53:09;97085.09;;;11.40;100.00
46724;BME280;32463;48.298;11.620;2023-05-03T09:55:38;97077.69;;;11.45;100.00
46724;BME280;32463;48.298;11.620;2023-05-03T09:58:06;97082.50;;;11.40;100.00
46724;BME280;32463;48.298;11.620;2023-05-03T10:00:37;97083.69;;;11.28;100.00
46724;BME280;32463;48.298;11.620;2023-05-03T10:03:09;97080.38;;;11.54;100.00
46724;BME280;32463;48.298;11.620;2023-05-03T10:05:46;97078.81;;;11.43;100.00
46724;BME280;32463;48.298;11.620;2023-05-03T10:08:27;97072.66;;;11.62;100.00
46724;BME280;32463;48.298;11.620;2023-05-03T10:10:57;97080.34;;;12.34;100.00
46724;BME280;32463;48.298;11.620;2023-05-03T10:13:24;97076.16;;;12.41;100.00
46724;BME280;32463;48.298;11.620;2023-05-03T10:16:01;97071.53;;;12.09;100.00
46724;BME280;32463;48.298;11.620;2023-05-03T10:18:31;97065.13;;;12.22;100.00
46724;BME280;32463;48.298;11.620;2023-05-03T10:21:03;97063.94;;;11.98;100.00
46724;BME280;32463;48.298;11.620;2023-05-03T10:23:32;97065.16;;;11.86;100.00
46724;BME280;32463;48.298;11.620;2023-05-03T10:28:32;97067.41;;;12.25;100.00
46724;BME280;32463;48.298;11.620;2023-05-03T10:30:58;97063.28;;;11.96;100.00
46724;BME280;32463;48.298;11.620;2023-05-03T10:33:32;97070.50;;;11.85;100.00
46724;BME280;32463;48.298;11.620;2023-05-03T10:36:04;97073.28;;;11.56;100.00
46724;BME280;32463;48.298;11.620;2023-05-03T10:38:31;97070.72;;;11.64;100.00
46724;BME280;32463;48.298;11.620;2023-05-03T10:40:58;97070.66;;;11.83;100.00
46724;BME280;32463;48.298;11.620;2023-05-03T10:46:08;97073.97;;;12.11;100.00
46724;BME280;32463;48.298;11.620;2023-05-03T10:48:36;97064.13;;;12.66;100.00
46724;BME280;32463;48.298;11.620;2023-05-03T10:51:30;97059.50;;;13.12;100.00
46724;BME280;32463;48.298;11.620;2023-05-03T10:54:01;97054.53;;;14.01;100.00
46724;BME280;32463;48.298;11.620;2023-05-03T10:56:27;97052.41;;;14.54;100.00
46724;BME280;32463;48.298;11.620;2023-05-03T10:58:55;97063.41;;;14.96;100.00
46724;BME280;32463;48.298;11.620;2023-05-03T11:01:23;97060.53;;;15.22;100.00
46724;BME280;32463;48.298;11.620;2023-05-03T11:04:09;97062.78;;;15.64;100.00
46724;BME280;32463;48.298;11.620;2023-05-03T11:06:39;97056.66;;;15.10;100.00
46724;BME280;32463;48.298;11.620;2023-05-03T11:09:07;97051.75;;;15.15;100.00
46724;BME280;32463;48.298;11.620;2023-05-03T11:11:38;97047.84;;;15.11;100.00
46724;BME280;32463;48.298;11.620;2023-05-03T11:14:05;97038.41;;;15.72;100.00
46724;BME280;32463;48.298;11.620;2023-05-03T11:16:32;97032.31;;;17.07;100.00
46724;BME280;32463;48.298;11.620;2023-05-03T11:19:00;97035.34;;;18.18;100.00
46724;BME280;32463;48.298;11.620;2023-05-03T11:21:27;97029.75;;;18.77;84.87
46724;BME280;32463;48.298;11.620;2023-05-03T11:23:57;97019.84;;;18.79;86.79
46724;BME280;32463;48.298;11.620;2023-05-03T11:26:24;97016.59;;;17.79;88.39
46724;BME280;32463;48.298;11.620;2023-05-03T11:28:52;97015.59;;;17.80;92.44
46724;BME280;32463;48.298;11.620;2023-05-03T11:31:19;97019.56;;;18.61;93.11
46724;BME280;32463;48.298;11.620;2023-05-03T11:33:47;97009.34;;;18.79;79.63
46724;BME280;32463;48.298;11.620;2023-05-03T11:36:14;97013.13;;;17.72;82.49
46724;BME280;32463;48.298;11.620;2023-05-03T11:38:41;97010.72;;;17.77;89.00
46724;BME280;32463;48.298;11.620;2023-05-03T11:41:12;97010.69;;;18.69;83.89
46724;BME280;32463;48.298;11.620;2023-05-03T11:43:44;97004.63;;;19.50;74.08
46724;BME280;32463;48.298;11.620;2023-05-03T11:46:12;97001.28;;;20.09;71.79
46724;BME280;32463;48.298;11.620;2023-05-03T11:48:42;96992.38;;;20.63;64.87
46724;BME280;32463;48.298;11.620;2023-05-03T11:51:09;96988.03;;;20.89;60.00
46724;BME280;32463;48.298;11.620;2023-05-03T11:53:38;96989.31;;;20.53;62.63
46724;BME280;32463;48.298;11.620;2023-05-03T11:56:11;96988.41;;;21.88;63.48
46724;BME280;32463;48.298;11.620;2023-05-03T12:01:21;96990.19;;;22.26;55.98
46724;BME280;32463;48.298;11.620;2023-05-03T12:03:52;96980.00;;;23.09;52.95
46724;BME280;32463;48.298;11.620;2023-05-03T12:06:19;96979.47;;;21.89;52.51
46724;BME280;32463;48.298;11.620;2023-05-03T12:08:46;96982.25;;;22.01;52.94
46724;BME280;32463;48.298;11.620;2023-05-03T12:11:12;96975.34;;;21.68;52.79
46724;BME280;32463;48.298;11.620;2023-05-03T12:13:39;96978.78;;;22.50;50.91
46724;BME280;32463;48.298;11.620;2023-05-03T12:16:07;96975.06;;;22.76;50.50
46724;BME280;32463;48.298;11.620;2023-05-03T12:18:45;96979.22;;;23.08;55.35
46724;BME280;32463;48.298;11.620;2023-05-03T12:21:11;96963.25;;;23.63;47.90
46724;BME280;32463;48.298;11.620;2023-05-03T12:23:39;96964.09;;;24.75;49.19
46724;BME280;32463;48.298;11.620;2023-05-03T12:26:06;96961.78;;;23.01;46.73
46724;BME280;32463;48.298;11.620;2023-05-03T12:28:33;96966.59;;;22.92;47.72
46724;BME280;32463;48.298;11.620;2023-05-03T12:30:59;96955.19;;;21.74;49.87
46724;BME280;32463;48.298;11.620;2023-05-03T12:33:26;96958.28;;;22.45;50.18
46724;BME280;32463;48.298;11.620;2023-05-03T12:35:52;96952.72;;;21.79;50.17
46724;BME280;32463;48.298;11.620;2023-05-03T12:38:19;96957.38;;;22.58;48.13
46724;BME280;32463;48.298;11.620;2023-05-03T12:40:45;96951.88;;;21.85;48.03
46724;BME280;32463;48.298;11.620;2023-05-03T12:43:12;96940.88;;;22.38;49.54
46724;BME280;32463;48.298;11.620;2023-05-03T12:45:38;96940.91;;;21.57;49.95
46724;BME280;32463;48.298;11.620;2023-05-03T12:48:06;96940.19;;;20.92;53.30
46724;BME280;32463;48.298;11.620;2023-05-03T12:50:32;96944.38;;;20.08;52.27
46724;BME280;32463;48.298;11.620;2023-05-03T12:52:59;96939.81;;;19.23;55.47
46724;BME280;32463;48.298;11.620;2023-05-03T12:55:25;96949.78;;;18.87;54.21
46724;BME280;32463;48.298;11.620;2023-05-03T12:57:52;96941.34;;;18.29;56.11
46724;BME280;32463;48.298;11.620;2023-05-03T13:00:19;96927.75;;;19.62;53.17
46724;BME280;32463;48.298;11.620;2023-05-03T13:02:46;96925.91;;;21.82;49.07